Time,TemperatureF,DewpointF,PressureIn,WindDirection,WindDirectionDegrees,WindSpeedMPH,WindSpeedGustMPH,Humidity,HourlyPrecipIn,Conditions,Clouds,dailyrainin,SoftwareType,DateUTC
2013-02-25 00:13:00,27.5,24.0,30.16,West,263,2.0,7.0,86,0.00,,,0.00,weatherlink.com 1.10,2013-02-25 05:13:00,
2013-02-25 00:28:00,27.4,24.0,30.16,WNW,292,2.0,4.0,87,0.00,,,0.00,weatherlink.com 1.10,2013-02-25 05:28:00,
2013-02-25 00:43:00,27.3,24.0,30.16,NW,306,1.0,3.0,87,0.00,,,0.00,weatherlink.com 1.10,2013-02-25 05:43:00,
2013-02-25 00:58:00,27.1,24.0,30.16,NW,306,1.0,2.0,88,0.00,,,0.00,weatherlink.com 1.10,2013-02-25 05:58:00,
2013-02-25 01:13:00,27.1,24.0,30.16,NW,311,2.0,4.0,88,0.00,,,0.00,weatherlink.com 1.10,2013-02-25 06:13:00,
2013-02-25 01:28:00,26.9,24.0,30.17,WNW,293,0.0,4.0,89,0.00,,,0.00,weatherlink.com 1.10,2013-02-25 06:28:00,
2013-02-25 01:43:00,27.1,24.0,30.17,West,264,2.0,3.0,89,0.00,,,0.00,weatherlink.com 1.10,2013-02-25 06:43:00,
2013-02-25 01:58:00,27.2,24.0,30.17,West,264,2.0,4.0,88,0.00,,,0.00,weatherlink.com 1.10,2013-02-25 06:58:00,
2013-02-25 02:13:00,27.2,24.0,30.18,WSW,241,2.0,4.0,88,0.00,,,0.00,weatherlink.com 1.10,2013-02-25 07:13:00,
2013-02-25 02:28:00,27.1,24.0,30.18,SW,226,1.0,3.0,89,0.00,,,0.00,weatherlink.com 1.10,2013-02-25 07:28:00,
2013-02-25 02:43:00,27.0,24.0,30.19,WSW,240,1.0,3.0,89,0.00,,,0.00,weatherlink.com 1.10,2013-02-25 07:43:00,
2013-02-25 02:58:00,27.0,24.0,30.19,West,271,0.0,1.0,89,0.00,,,0.00,weatherlink.com 1.10,2013-02-25 07:58:00,
2013-02-25 03:13:00,26.9,24.0,30.19,West,271,0.0,1.0,89,0.00,,,0.00,weatherlink.com 1.10,2013-02-25 08:13:00,
2013-02-25 03:29:00,26.9,24.0,30.19,West,269,0.0,2.0,89,0.00,,,0.00,weatherlink.com 1.10,2013-02-25 08:29:00,
2013-02-25 03:44:00,26.9,24.0,30.19,West,269,0.0,1.0,89,0.00,,,0.00,weatherlink.com 1.10,2013-02-25 08:44:00,
2013-02-25 03:59:00,26.8,24.0,30.20,West,269,0.0,2.0,89,0.00,,,0.00,weatherlink.com 1.10,2013-02-25 08:59:00,
2013-02-25 04:14:00,26.7,24.0,30.20,West,269,1.0,2.0,89,0.00,,,0.00,weatherlink.com 1.10,2013-02-25 09:14:00,
2013-02-25 04:29:00,26.7,24.0,30.20,West,271,2.0,3.0,89,0.00,,,0.00,weatherlink.com 1.10,2013-02-25 09:29:00,
2013-02-25 04:44:00,26.9,24.0,30.20,West,263,0.0,4.0,88,0.00,,,0.00,weatherlink.com 1.10,2013-02-25 09:44:00,
2013-02-25 04:59:00,27.0,24.0,30.20,West,277,2.0,5.0,88,0.00,,,0.00,weatherlink.com 1.10,2013-02-25 09:59:00,
2013-02-25 05:14:00,27.0,24.0,30.21,West,275,1.0,2.0,88,0.00,,,0.00,weatherlink.com 1.10,2013-02-25 10:14:00,
2013-02-25 05:29:00,26.8,24.0,30.21,West,275,2.0,3.0,88,0.00,,,0.00,weatherlink.com 1.10,2013-02-25 10:29:00,
2013-02-25 05:44:00,26.6,24.0,30.21,West,279,1.0,2.0,89,0.00,,,0.00,weatherlink.com 1.10,2013-02-25 10:44:00,
2013-02-25 05:59:00,26.5,24.0,30.21,West,279,1.0,2.0,89,0.00,,,0.00,weatherlink.com 1.10,2013-02-25 10:59:00,
2013-02-25 06:14:00,26.5,24.0,30.21,NNW,333,3.0,3.0,89,0.00,,,0.00,weatherlink.com 1.10,2013-02-25 11:14:00,
2013-02-25 06:29:00,26.4,24.0,30.21,NNW,333,1.0,3.0,89,0.00,,,0.00,weatherlink.com 1.10,2013-02-25 11:29:00,
2013-02-25 06:44:00,26.1,23.0,30.21,WNW,287,0.0,2.0,89,0.00,,,0.00,weatherlink.com 1.10,2013-02-25 11:44:00,
2013-02-25 06:59:00,25.8,23.0,30.21,WNW,287,0.0,0.0,90,0.00,,,0.00,weatherlink.com 1.10,2013-02-25 11:59:00,
2013-02-25 07:14:00,25.6,23.0,30.21,WNW,287,0.0,1.0,90,0.00,,,0.00,weatherlink.com 1.10,2013-02-25 12:14:00,
2013-02-25 07:29:00,25.7,23.0,30.22,WNW,287,1.0,2.0,90,0.00,,,0.00,weatherlink.com 1.10,2013-02-25 12:29:00,
2013-02-25 07:44:00,25.8,23.0,30.22,WNW,287,0.0,2.0,90,0.00,,,0.00,weatherlink.com 1.10,2013-02-25 12:44:00,
2013-02-25 07:59:00,25.7,24.0,30.22,WNW,287,0.0,0.0,91,0.00,,,0.00,weatherlink.com 1.10,2013-02-25 12:59:00,
2013-02-25 08:14:00,25.9,23.0,30.22,WNW,286,0.0,3.0,90,0.00,,,0.00,weatherlink.com 1.10,2013-02-25 13:14:00,
2013-02-25 08:29:00,26.2,24.0,30.23,WNW,286,0.0,1.0,90,0.00,,,0.00,weatherlink.com 1.10,2013-02-25 13:29:00,
2013-02-25 08:44:00,26.3,24.0,30.23,WNW,286,0.0,0.0,90,0.00,,,0.00,weatherlink.com 1.10,2013-02-25 13:44:00,
2013-02-25 08:59:00,26.7,24.0,30.23,WNW,286,0.0,0.0,89,0.00,,,0.00,weatherlink.com 1.10,2013-02-25 13:59:00,
2013-02-25 09:14:00,27.1,24.0,30.23,WNW,286,0.0,0.0,89,0.00,,,0.00,weatherlink.com 1.10,2013-02-25 14:14:00,
2013-02-25 09:29:00,27.5,25.0,30.24,WNW,286,0.0,0.0,89,0.00,,,0.00,weatherlink.com 1.10,2013-02-25 14:29:00,
2013-02-25 09:44:00,27.7,25.0,30.24,WNW,286,2.0,2.0,88,0.00,,,0.00,weatherlink.com 1.10,2013-02-25 14:44:00,
2013-02-25 09:59:00,27.9,25.0,30.24,WNW,285,1.0,2.0,88,0.00,,,0.00,weatherlink.com 1.10,2013-02-25 14:59:00,
2013-02-25 10:14:00,28.7,26.0,30.25,SE,138,1.0,2.0,88,0.00,,,0.00,weatherlink.com 1.10,2013-02-25 15:14:00,
2013-02-25 10:29:00,29.1,26.0,30.25,NE,42,0.0,3.0,87,0.00,,,0.00,weatherlink.com 1.10,2013-02-25 15:29:00,
2013-02-25 10:44:00,29.2,26.0,30.25,NE,42,1.0,2.0,86,0.00,,,0.00,weatherlink.com 1.10,2013-02-25 15:44:00,
2013-02-25 10:59:00,29.4,26.0,30.25,NE,42,0.0,1.0,86,0.00,,,0.00,weatherlink.com 1.10,2013-02-25 15:59:00,
2013-02-25 11:14:00,30.2,26.0,30.24,SW,234,2.0,4.0,83,0.00,,,0.00,weatherlink.com 1.10,2013-02-25 16:14:00,
2013-02-25 11:29:00,30.4,25.0,30.24,SW,234,0.0,5.0,81,0.00,,,0.00,weatherlink.com 1.10,2013-02-25 16:29:00,
2013-02-25 11:44:00,30.9,25.0,30.24,South,177,1.0,3.0,79,0.00,,,0.00,weatherlink.com 1.10,2013-02-25 16:44:00,
2013-02-25 11:59:00,30.8,26.0,30.24,NW,308,1.0,3.0,83,0.00,,,0.00,weatherlink.com 1.10,2013-02-25 16:59:00,
2013-02-25 12:14:00,30.9,26.0,30.24,NW,308,1.0,3.0,83,0.01,,,0.01,weatherlink.com 1.10,2013-02-25 17:14:00,
2013-02-25 12:29:00,31.0,26.0,30.23,NW,307,2.0,3.0,82,0.01,,,0.01,weatherlink.com 1.10,2013-02-25 17:29:00,
2013-02-25 12:44:00,30.7,27.0,30.23,NW,308,2.0,3.0,85,0.01,,,0.01,weatherlink.com 1.10,2013-02-25 17:44:00,
2013-02-25 12:59:00,30.2,27.0,30.23,North,5,3.0,4.0,86,0.01,,,0.01,weatherlink.com 1.10,2013-02-25 17:59:00,
2013-02-25 13:14:00,30.5,27.0,30.23,NNE,32,2.0,4.0,86,0.00,,,0.01,weatherlink.com 1.10,2013-02-25 18:14:00,
2013-02-25 13:29:00,30.6,26.0,30.23,NNE,27,2.0,4.0,84,0.00,,,0.01,weatherlink.com 1.10,2013-02-25 18:29:00,
2013-02-25 13:44:00,30.7,26.0,30.23,NNE,19,3.0,4.0,82,0.00,,,0.01,weatherlink.com 1.10,2013-02-25 18:44:00,
2013-02-25 13:59:00,30.5,26.0,30.22,NNE,24,2.0,5.0,82,0.00,,,0.01,weatherlink.com 1.10,2013-02-25 18:59:00,
2013-02-25 14:14:00,31.3,26.0,30.23,NNE,20,3.0,3.0,82,0.00,,,0.01,weatherlink.com 1.10,2013-02-25 19:14:00,
2013-02-25 14:29:00,31.6,26.0,30.22,NNE,24,2.0,3.0,81,0.00,,,0.01,weatherlink.com 1.10,2013-02-25 19:29:00,
2013-02-25 14:44:00,31.1,26.0,30.22,NNE,24,2.0,2.0,82,0.00,,,0.01,weatherlink.com 1.10,2013-02-25 19:44:00,
2013-02-25 14:59:00,31.2,26.0,30.22,West,263,3.0,3.0,80,0.00,,,0.01,weatherlink.com 1.10,2013-02-25 19:59:00,
2013-02-25 15:14:00,32.0,26.0,30.22,South,175,2.0,5.0,78,0.00,,,0.01,weatherlink.com 1.10,2013-02-25 20:14:00,
2013-02-25 15:29:00,31.8,26.0,30.22,SSW,201,4.0,7.0,79,0.01,,,0.02,weatherlink.com 1.10,2013-02-25 20:29:00,
2013-02-25 15:44:00,31.5,26.0,30.22,SW,225,5.0,7.0,79,0.01,,,0.02,weatherlink.com 1.10,2013-02-25 20:44:00,
2013-02-25 15:59:00,31.4,26.0,30.22,South,170,4.0,7.0,81,0.01,,,0.00,weatherlink.com 1.10,2013-02-25 20:59:00,
2013-02-25 16:14:00,31.3,26.0,30.22,SSE,150,4.0,7.0,81,0.01,,,0.00,weatherlink.com 1.10,2013-02-25 21:14:00,
2013-02-25 16:29:00,31.1,26.0,30.22,South,186,2.0,5.0,82,0.00,,,0.00,weatherlink.com 1.10,2013-02-25 21:29:00,
2013-02-25 16:44:00,31.1,27.0,30.22,South,171,0.0,6.0,83,0.00,,,0.00,weatherlink.com 1.10,2013-02-25 21:44:00,
2013-02-25 16:59:00,31.1,27.0,30.23,SSE,155,2.0,6.0,84,0.00,,,0.00,weatherlink.com 1.10,2013-02-25 21:59:00,
2013-02-25 17:14:00,31.0,27.0,30.22,SSE,168,2.0,4.0,84,0.00,,,0.00,weatherlink.com 1.10,2013-02-25 22:14:00,
2013-02-25 17:29:00,30.7,27.0,30.22,ESE,105,2.0,5.0,85,0.00,,,0.00,weatherlink.com 1.10,2013-02-25 22:29:00,
2013-02-25 17:45:00,30.5,27.0,30.22,SE,135,3.0,5.0,86,0.00,,,0.00,weatherlink.com 1.10,2013-02-25 22:45:00,
2013-02-25 18:00:00,30.4,27.0,30.22,SE,127,2.0,8.0,87,0.00,,,0.00,weatherlink.com 1.10,2013-02-25 23:00:00,
2013-02-25 18:15:00,30.4,27.0,30.22,SE,133,1.0,4.0,87,0.00,,,0.00,weatherlink.com 1.10,2013-02-25 23:15:00,
2013-02-25 18:30:00,30.3,27.0,30.22,SE,138,3.0,4.0,87,0.00,,,0.00,weatherlink.com 1.10,2013-02-25 23:30:00,
2013-02-25 18:45:00,30.2,27.0,30.23,SE,138,4.0,5.0,88,0.00,,,0.00,weatherlink.com 1.10,2013-02-25 23:45:00,
2013-02-25 19:00:00,30.1,27.0,30.23,SE,146,2.0,4.0,88,0.00,,,0.00,weatherlink.com 1.10,2013-02-26 00:00:00,
2013-02-25 19:15:00,30.1,27.0,30.23,ESE,121,3.0,4.0,88,0.00,,,0.00,weatherlink.com 1.10,2013-02-26 00:15:00,
2013-02-25 19:30:00,30.1,27.0,30.23,ESE,123,3.0,4.0,88,0.00,,,0.00,weatherlink.com 1.10,2013-02-26 00:30:00,
2013-02-25 19:45:00,29.9,27.0,30.23,ESE,108,4.0,4.0,88,0.00,,,0.00,weatherlink.com 1.10,2013-02-26 00:45:00,
2013-02-25 20:00:00,29.9,27.0,30.23,SE,128,3.0,4.0,88,0.00,,,0.00,weatherlink.com 1.10,2013-02-26 01:00:00,
2013-02-25 20:15:00,29.8,27.0,30.23,ESE,116,1.0,3.0,88,0.00,,,0.00,weatherlink.com 1.10,2013-02-26 01:15:00,
2013-02-25 20:30:00,29.7,26.0,30.23,ESE,117,2.0,3.0,87,0.00,,,0.00,weatherlink.com 1.10,2013-02-26 01:30:00,
2013-02-25 20:45:00,29.7,26.0,30.23,SE,132,0.0,3.0,87,0.00,,,0.00,weatherlink.com 1.10,2013-02-26 01:45:00,
2013-02-25 21:00:00,29.7,26.0,30.23,SE,132,0.0,2.0,87,0.00,,,0.00,weatherlink.com 1.10,2013-02-26 02:00:00,
2013-02-25 21:15:00,29.6,26.0,30.23,SE,132,0.0,2.0,87,0.00,,,0.00,weatherlink.com 1.10,2013-02-26 02:15:00,
2013-02-25 21:30:00,29.6,27.0,30.23,SE,129,2.0,3.0,88,0.00,,,0.00,weatherlink.com 1.10,2013-02-26 02:30:00,
2013-02-25 21:45:00,29.6,27.0,30.23,SE,129,0.0,2.0,88,0.00,,,0.00,weatherlink.com 1.10,2013-02-26 02:45:00,
2013-02-25 22:00:00,29.6,27.0,30.22,SE,126,2.0,4.0,89,0.00,,,0.00,weatherlink.com 1.10,2013-02-26 03:00:00,
2013-02-25 22:15:00,29.8,27.0,30.22,SE,142,2.0,7.0,89,0.00,,,0.00,weatherlink.com 1.10,2013-02-26 03:15:00,
2013-02-25 22:30:00,30.0,28.0,30.22,SE,140,4.0,5.0,90,0.00,,,0.00,weatherlink.com 1.10,2013-02-26 03:30:00,
2013-02-25 22:45:00,30.1,28.0,30.21,SE,137,2.0,5.0,90,0.00,,,0.00,weatherlink.com 1.10,2013-02-26 03:45:00,
2013-02-25 23:00:00,30.2,28.0,30.21,SE,139,1.0,4.0,90,0.00,,,0.00,weatherlink.com 1.10,2013-02-26 04:00:00,
2013-02-25 23:15:00,30.2,27.0,30.21,SE,139,2.0,4.0,89,0.00,,,0.00,weatherlink.com 1.10,2013-02-26 04:15:00,
2013-02-25 23:30:00,30.3,28.0,30.20,SE,128,2.0,6.0,89,0.00,,,0.00,weatherlink.com 1.10,2013-02-26 04:30:00,
2013-02-25 23:45:00,30.3,28.0,30.20,SE,136,3.0,5.0,90,0.00,,,0.00,weatherlink.com 1.10,2013-02-26 04:45:00,